Pagrindinis puslapis
METAR-TAF:

METAR-TAF

Oro uostai :

Udontanis, Tailandas

platuma: 17-23N, ilguma: 102-48E, Aukštis: 177 m

Dabartinis oras

Ataskaita buvo paskelbta 36 minutes, ne 16:00 UTC
Ramus vėjas
Temperatūra 24°C
Drėgmė 74%
Slėgis 1014 hPa
Matomumas: 7000 m

METAR: VTUD 221600Z 00000KT 7000 NSC 24/19 Q1014 NOSIG

Laikas: 23:36 (16:36 UTC)

Prognozė

Ataskaita buvo paskelbta 5 valandos ir 36 minutes, ne 11:00 UTC
Prognozė galioja nuo 22 metu 12 UTC su 23 metu 12 UTC
Vėjas 3 kt iš Rytų
Matomumas: 9000 m
Mažai debesys ne aukštis 3500 ft
Tapsmas
nuo 22 metu 21 UTC su 22 metu 23 UTC
Matomumas: 4000 m
rūkana
Tapsmas
nuo 23 metu 02 UTC su 23 metu 04 UTC
Matomumas: 9000 m

TAF: VTUD 221100Z 2212/2312 10003KT 9000 FEW035 BECMG 2221/2223 4000 BR BECMG 2302/2304 9000 NSW

Orai ataskaitas ir orų prognozės (METAR, TAF).

turimą stotys yra geltonos ir raudonos taškus žemėlapyje.

Perkelti pele per norėdami pamatyti stoties vardą.

Tada spustelėkite, norėdami matyti oro stebėjimo ir prognozės.

Norėdami pakeisti žemėlapį: spustelėkite ant žalios mygtukų su juodo kryžiaus žemyn,; žalią mygtuką su brūkšneliu, jei norite nutolinti; arba žalių rodyklių gretimoms žemėlapius.


METAR-TAF: